PDT,Max TemperatureF,Mean TemperatureF,Min TemperatureF,Max Dew PointF,MeanDew PointF,Min DewpointF,Max Humidity, Mean Humidity, Min Humidity, Max Sea Level PressureIn, Mean Sea Level PressureIn, Min Sea Level PressureIn, Max VisibilityMiles, Mean VisibilityMiles, Min VisibilityMiles, Max Wind SpeedMPH, Mean Wind SpeedMPH, Max Gust SpeedMPH,PrecipitationIn, CloudCover, Events, WindDirDegrees
2012-10-1,106,90,75,34,29,25,16,11,7,29.88,29.79,29.72,10,10,10,12,4,,0.00,0,,330
2012-10-2,107,90,73,31,27,24,18,11,6,29.80,29.72,29.64,10,10,10,13,5,,0.00,0,,221
2012-10-3,106,90,75,34,29,24,17,11,6,29.79,29.73,29.69,10,10,10,16,7,22,0.00,0,,236
2012-10-4,100,88,77,40,34,26,25,15,8,29.89,29.82,29.77,10,10,10,15,7,,0.00,0,,237
2012-10-5,98,84,72,40,33,28,24,16,9,29.88,29.81,29.75,10,10,10,13,5,,0.00,0,,254
2012-10-6,95,82,71,37,32,30,24,17,12,29.81,29.75,29.68,10,10,10,12,4,,0.00,0,,278
2012-10-7,95,80,66,34,31,29,26,17,11,29.83,29.75,29.70,10,10,10,9,5,,0.00,0,,325
2012-10-8,96,80,66,49,39,31,31,22,15,29.84,29.76,29.70,10,10,10,12,5,18,0.00,0,,253
2012-10-9,93,82,72,57,47,36,46,29,17,29.83,29.76,29.70,10,10,10,16,6,24,0.00,0,,218
2012-10-10,91,82,72,65,54,44,78,41,21,29.82,29.75,29.68,10,10,4,17,6,33,0.08,2,Rain-Thunderstorm,212
2012-10-11,73,68,62,64,61,48,94,80,47,29.86,29.78,29.68,10,9,2,23,5,31,0.64,5,Rain-Thunderstorm,260
2012-10-12,73,66,59,54,49,45,78,57,37,30.02,29.92,29.80,10,10,10,10,6,,0.00,3,,220
2012-10-13,81,68,55,54,50,46,84,58,31,30.15,30.05,29.98,10,10,10,9,4,,0.00,0,,336
2012-10-14,91,78,66,54,48,43,65,38,19,30.07,29.98,29.89,10,10,10,18,9,24,0.00,0,,357
2012-10-15,93,78,66,49,46,44,52,33,19,29.92,29.85,29.77,10,10,10,9,5,,0.00,0,,310
2012-10-16,93,80,66,50,43,33,54,29,14,29.82,29.73,29.64,10,10,10,8,4,,0.00,0,,256
2012-10-17,93,80,66,48,37,26,48,24,12,29.85,29.78,29.70,10,10,10,21,7,29,0.00,0,,349
2012-10-18,91,80,70,34,24,19,27,14,7,29.98,29.90,29.86,10,10,10,18,8,23,0.00,0,,341
2012-10-19,93,76,61,31,27,23,27,19,9,29.91,29.82,29.72,10,10,10,9,4,,0.00,0,,258
2012-10-20,93,77,61,48,37,32,35,24,12,29.75,29.66,29.58,10,10,10,17,4,24,0.00,0,,216
2012-10-21,88,80,73,53,49,44,46,34,22,29.70,29.65,29.61,10,10,10,22,12,25,0.00,0,,215
2012-10-22,84,76,69,52,44,32,53,32,19,29.81,29.74,29.69,10,10,10,20,9,25,0.00,0,,212
2012-10-23,82,73,64,44,39,33,43,30,18,29.82,29.75,29.70,10,10,10,13,7,,0.00,0,,224
2012-10-24,81,70,59,36,30,22,41,25,13,29.93,29.84,29.75,10,10,10,10,6,,0.00,0,,265
2012-10-25,82,68,54,29,24,19,31,20,11,30.03,29.98,29.92,10,10,10,17,6,,0.00,0,,360
2012-10-26,75,68,61,27,17,8,27,15,9,30.15,30.03,29.96,10,10,10,29,20,36,0.00,0,,9
2012-10-27,82,70,59,22,17,12,20,14,8,29.97,29.91,29.83,10,10,10,18,11,28,0.00,0,,346
2012-10-28,87,70,55,27,23,18,27,18,10,29.98,29.92,29.87,10,10,10,10,5,,0.00,0,,310
2012-10-29,87,70,54,38,27,23,31,21,12,30.06,29.98,29.93,10,10,10,10,3,,0.00,0,,270
2012-10-30,88,71,55,31,27,24,33,21,11,30.03,29.95,29.87,10,10,10,9,3,,0.00,0,,236
2012-10-31,86,70,55,34,27,23,32,21,12,29.98,29.90,29.84,10,10,10,8,4,,0.00,0,,235